Time;durP1;ratioP1;P1;durP2;ratioP2;P2;SDS_P1;SDS_P2;PMS_P1;PMS_P2;Temp;Humidity;BMP_temperature;BMP_pressure;BME280_temperature;BME280_humidity;BME280_pressure;Samples;Min_cycle;Max_cycle;Signal;HPM_P1;HPM_P2
2022/04/07 00:03:57;;;;;;;7.47;5.28;;;;;;;8.15;73.02;98191.94;8603257;33;20312;-75
2022/04/07 00:09:02;;;;;;;7.97;5.32;;;;;;;8.40;72.23;98174.94;8601475;33;20147;-75
2022/04/07 00:14:06;;;;;;;6.90;4.70;;;;;;;8.05;73.32;98170.66;8604037;33;20817;-75
2022/04/07 00:19:10;;;;;;;5.85;4.18;;;;;;;8.06;73.41;98155.44;8601222;33;21656;-76
2022/04/07 00:24:13;;;;;;;7.47;5.13;;;;;;;8.21;73.21;98163.69;8600569;33;20472;-76
2022/04/07 00:29:17;;;;;;;5.00;3.17;;;;;;;7.86;74.07;98163.72;8598788;33;20959;-76
2022/04/07 00:34:21;;;;;;;6.82;4.15;;;;;;;7.69;74.83;98159.31;8596822;33;20515;-75
2022/04/07 00:39:25;;;;;;;5.35;3.92;;;;;;;7.89;75.28;98149.22;8602913;33;20400;-75
2022/04/07 00:44:28;;;;;;;4.75;3.53;;;;;;;7.90;75.71;98137.53;8601962;33;20668;-75
2022/04/07 00:49:32;;;;;;;5.95;4.07;;;;;;;7.81;77.11;98133.16;8600968;33;20285;-75
2022/04/07 00:54:36;;;;;;;7.43;4.55;;;;;;;7.76;77.54;98119.44;8599207;33;21133;-75
2022/04/07 00:59:41;;;;;;;4.40;3.40;;;;;;;7.72;77.54;98118.91;8601407;33;21474;-75
2022/04/07 01:04:46;;;;;;;5.18;3.65;;;;;;;7.71;77.53;98099.38;8602213;33;20140;-75
2022/04/07 01:09:49;;;;;;;4.25;2.42;;;;;;;7.46;77.65;98094.91;8599826;33;20179;-75
2022/04/07 01:14:54;;;;;;;5.18;3.75;;;;;;;7.48;77.80;98090.25;8600394;33;20242;-75
2022/04/07 01:19:59;;;;;;;4.20;3.22;;;;;;;7.65;77.21;98084.00;8599952;33;20442;-75
2022/04/07 01:25:04;;;;;;;5.57;3.08;;;;;;;7.53;78.06;98069.25;8602907;33;20147;-75
2022/04/07 01:30:09;;;;;;;5.50;3.20;;;;;;;7.35;79.67;98061.34;8605930;33;20445;-75
2022/04/07 01:35:14;;;;;;;5.65;3.28;;;;;;;7.14;81.37;98045.72;8603599;33;20440;-76
2022/04/07 01:40:22;;;;;;;5.78;2.90;;;;;;;7.14;82.32;98039.56;8600825;33;20576;-76
2022/04/07 01:45:27;;;;;;;4.38;2.92;;;;;;;6.94;82.47;98038.94;8599252;33;20577;-76
2022/04/07 01:50:31;;;;;;;6.32;4.53;;;;;;;7.25;81.44;98033.94;8602027;33;20343;-76
2022/04/07 01:55:37;;;;;;;4.28;3.03;;;;;;;7.30;79.75;98028.13;8603649;33;20145;-76
2022/04/07 02:00:40;;;;;;;4.10;3.70;;;;;;;7.26;80.00;98003.53;8603948;33;20151;-76
2022/04/07 02:05:44;;;;;;;5.47;3.88;;;;;;;7.24;79.61;98006.41;8604132;33;20235;-76
2022/04/07 02:10:48;;;;;;;3.47;2.75;;;;;;;7.23;79.53;98001.19;8603337;33;20177;-77
2022/04/07 02:15:51;;;;;;;3.72;3.17;;;;;;;7.02;82.00;98001.59;8605738;33;20887;-76
2022/04/07 02:20:54;;;;;;;3.95;2.95;;;;;;;6.82;81.47;97996.47;8602133;33;21189;-76
2022/04/07 02:25:59;;;;;;;6.40;3.60;;;;;;;7.14;79.55;97972.81;8602026;33;20462;-77
2022/04/07 02:31:02;;;;;;;4.45;2.55;;;;;;;7.04;78.91;97978.25;8599943;33;20178;-76
2022/04/07 02:36:07;;;;;;;2.72;2.38;;;;;;;6.93;78.79;97967.88;8601642;33;20192;-76
2022/04/07 02:41:12;;;;;;;4.63;3.40;;;;;;;7.26;77.12;97950.97;8602545;33;20886;-76
2022/04/07 02:46:15;;;;;;;4.35;2.53;;;;;;;7.25;76.11;97962.66;8599970;33;20223;-76
2022/04/07 02:51:18;;;;;;;4.03;2.47;;;;;;;7.32;75.49;97948.66;8605442;33;20572;-76
2022/04/07 02:56:22;;;;;;;4.90;2.20;;;;;;;7.24;74.96;97938.78;8604346;33;21006;-76
2022/04/07 03:01:25;;;;;;;3.57;2.80;;;;;;;7.43;74.85;97925.19;8602042;33;20423;-76
2022/04/07 03:06:29;;;;;;;4.03;2.63;;;;;;;7.64;74.02;97905.97;8598636;33;20700;-76
2022/04/07 03:11:34;;;;;;;5.78;3.05;;;;;;;7.63;74.12;97903.50;8596841;33;20416;-76
2022/04/07 03:16:37;;;;;;;5.20;2.47;;;;;;;7.19;76.49;97906.44;8591849;33;20151;-76
2022/04/07 03:21:40;;;;;;;6.00;2.28;;;;;;;7.02;79.06;97886.84;8591996;33;21244;-76
2022/04/07 03:26:45;;;;;;;6.50;1.90;;;;;;;6.67;81.23;97877.19;8589083;33;21231;-77
2022/04/07 03:31:48;;;;;;;6.63;3.30;;;;;;;6.85;80.46;97877.91;8589182;33;20147;-76
2022/04/07 03:36:52;;;;;;;3.10;2.50;;;;;;;7.00;79.61;97867.50;8590395;33;20217;-76
2022/04/07 03:41:57;;;;;;;7.18;2.45;;;;;;;6.77;79.11;97870.72;8592662;33;20190;-75
2022/04/07 03:47:00;;;;;;;5.22;2.55;;;;;;;7.32;77.39;97857.88;8592451;33;20238;-75
2022/04/07 03:52:04;;;;;;;3.67;2.80;;;;;;;7.17;78.35;97852.34;8597621;33;20257;-76
2022/04/07 03:57:09;;;;;;;4.38;2.80;;;;;;;7.16;77.79;97842.66;8601645;33;20410;-76
2022/04/07 04:02:13;;;;;;;3.83;2.17;;;;;;;6.92;78.57;97828.28;8604797;33;20274;-75
2022/04/07 04:07:22;;;;;;;2.70;2.28;;;;;;;6.94;78.65;97812.94;8614446;33;20151;-76
2022/04/07 04:12:29;;;;;;;3.88;2.03;;;;;;;7.34;76.68;97800.63;8637276;33;20147;-75
2022/04/07 04:17:32;;;;;;;2.47;2.05;;;;;;;7.15;76.86;97800.97;8615349;33;20193;-75
2022/04/07 04:22:35;;;;;;;1.92;1.75;;;;;;;7.15;76.61;97766.25;8605563;33;20409;-76
2022/04/07 04:27:40;;;;;;;3.97;2.05;;;;;;;7.43;75.88;97753.38;8605224;33;20426;-75
2022/04/07 04:32:43;;;;;;;3.30;2.38;;;;;;;7.63;75.41;97732.50;8606792;33;21056;-77
2022/04/07 04:37:47;;;;;;;4.97;1.75;;;;;;;7.15;75.91;97745.72;8604149;33;20419;-75
2022/04/07 04:42:52;;;;;;;3.25;2.13;;;;;;;7.50;74.65;97733.84;8602199;33;21118;-75
2022/04/07 04:47:55;;;;;;;2.28;1.95;;;;;;;7.52;74.46;97733.69;8605898;33;20139;-76
2022/04/07 04:52:58;;;;;;;3.38;1.95;;;;;;;7.75;73.67;97699.06;8606143;33;20426;-76
2022/04/07 04:58:03;;;;;;;2.35;2.15;;;;;;;7.42;74.38;97717.00;8602125;33;20402;-75
2022/04/07 05:03:06;;;;;;;2.65;1.63;;;;;;;7.65;73.63;97682.41;8601799;33;20183;-76
2022/04/07 05:08:10;;;;;;;4.30;1.80;;;;;;;7.43;74.04;97686.63;8599042;33;20421;-76
2022/04/07 05:13:14;;;;;;;7.57;2.08;;;;;;;7.80;72.55;97678.03;8599605;33;20193;-76
2022/04/07 05:18:17;;;;;;;2.90;2.20;;;;;;;7.90;72.58;97689.34;8598629;33;20463;-76
2022/04/07 05:23:20;;;;;;;2.30;1.98;;;;;;;7.80;71.91;97675.34;8597915;33;20400;-76
2022/04/07 05:28:25;;;;;;;6.85;1.90;;;;;;;7.47;72.32;97654.06;8590909;33;20406;-76
2022/04/07 05:33:28;;;;;;;2.60;1.83;;;;;;;7.67;71.75;97625.13;8590498;33;20144;-76
2022/04/07 05:38:31;;;;;;;2.55;1.63;;;;;;;7.88;71.32;97621.03;8593502;33;20244;-76
2022/04/07 05:43:35;;;;;;;5.22;1.67;;;;;;;8.01;70.71;97613.28;8598627;33;20246;-75
2022/04/07 05:48:38;;;;;;;3.08;1.77;;;;;;;7.98;70.47;97608.31;8604114;33;20549;-76
2022/04/07 05:53:41;;;;;;;1.73;1.45;;;;;;;8.00;70.11;97590.22;8611683;33;20430;-76
2022/04/07 05:58:46;;;;;;;1.20;1.15;;;;;;;8.01;69.58;97583.03;8601720;33;20448;-75
2022/04/07 06:03:49;;;;;;;6.38;1.83;;;;;;;8.04;71.68;97559.47;8599295;33;20163;-76
2022/04/07 06:08:52;;;;;;;3.47;1.75;;;;;;;7.59;74.43;97557.53;8599274;33;20200;-76
2022/04/07 06:13:56;;;;;;;4.70;2.47;;;;;;;7.39;76.30;97520.56;8600759;33;20837;-76
2022/04/07 06:18:59;;;;;;;5.60;1.85;;;;;;;7.48;76.70;97521.38;8595194;33;20503;-76
2022/04/07 06:24:02;;;;;;;2.47;2.00;;;;;;;7.76;76.97;97520.88;8597001;33;20401;-76
2022/04/07 06:29:07;;;;;;;4.05;1.73;;;;;;;7.30;78.71;97504.78;8605043;33;20438;-75
2022/04/07 06:34:10;;;;;;;2.10;1.17;;;;;;;7.11;80.29;97477.50;8597977;33;20259;-76
2022/04/07 06:39:13;;;;;;;3.33;1.63;;;;;;;7.30;81.09;97451.38;8600018;33;20617;-76
2022/04/07 06:44:19;;;;;;;2.35;1.58;;;;;;;7.21;81.57;97414.06;8603689;33;20224;-75
2022/04/07 06:49:22;;;;;;;1.58;1.48;;;;;;;7.32;80.68;97430.66;8624870;33;20233;-74
2022/04/07 06:54:25;;;;;;;2.50;1.20;;;;;;;7.73;78.03;97424.06;8631056;33;20189;-74
2022/04/07 06:59:29;;;;;;;1.10;1.00;;;;;;;8.03;76.87;97389.41;8567681;33;20195;-74
2022/04/07 07:04:33;;;;;;;1.67;1.20;;;;;;;8.08;76.39;97384.34;8602745;33;20481;-75
2022/04/07 07:09:36;;;;;;;0.98;0.90;;;;;;;8.57;73.97;97386.56;8624661;33;20431;-75
2022/04/07 07:14:40;;;;;;;1.00;1.00;;;;;;;8.19;74.44;97364.34;8601003;33;20404;-75
2022/04/07 07:19:43;;;;;;;0.93;0.93;;;;;;;8.24;74.61;97364.66;8601779;33;20474;-75
2022/04/07 07:24:46;;;;;;;0.77;0.77;;;;;;;7.84;76.76;97363.19;8631544;32;20503;-75
2022/04/07 07:29:51;;;;;;;1.10;1.10;;;;;;;7.98;78.14;97346.38;8649435;32;20438;-75
2022/04/07 07:34:54;;;;;;;1.00;1.00;;;;;;;7.49;80.03;97336.09;8649811;32;22018;-75
2022/04/07 07:39:57;;;;;;;0.90;0.90;;;;;;;7.67;80.13;97317.09;8654526;32;20507;-76
2022/04/07 07:45:02;;;;;;;0.82;0.82;;;;;;;7.39;80.23;97335.50;8629190;32;20489;-75
2022/04/07 07:50:07;;;;;;;0.80;0.80;;;;;;;7.18;81.58;97323.63;8623269;32;20151;-76
2022/04/07 07:55:10;;;;;;;1.15;1.05;;;;;;;7.35;80.96;97300.34;8600094;33;20840;-76
2022/04/07 08:00:17;;;;;;;1.05;1.05;;;;;;;7.43;81.46;97318.09;8591388;33;20510;-76
2022/04/07 08:05:20;;;;;;;1.33;1.23;;;;;;;7.21;83.62;97269.06;8571986;33;20409;-76
2022/04/07 08:10:23;;;;;;;0.85;0.82;;;;;;;6.74;86.28;97275.34;8588496;33;20131;-76
2022/04/07 08:15:28;;;;;;;0.80;0.80;;;;;;;6.40;88.88;97265.84;8587235;33;20146;-76
2022/04/07 08:20:31;;;;;;;1.35;0.80;;;;;;;6.38;89.52;97238.53;8586996;33;20197;-75
2022/04/07 08:25:34;;;;;;;2.10;0.90;;;;;;;6.42;90.60;97241.69;8591025;33;21103;-76
2022/04/07 08:30:39;;;;;;;0.95;0.80;;;;;;;6.35;91.33;97223.72;8591492;33;20426;-76
2022/04/07 08:35:42;;;;;;;1.08;0.98;;;;;;;6.51;91.74;97193.47;8593503;33;20849;-76
2022/04/07 08:40:50;;;;;;;1.25;1.13;;;;;;;6.48;92.89;97201.84;8600234;33;20277;-76
2022/04/07 08:45:54;;;;;;;1.00;0.95;;;;;;;6.57;92.38;97182.09;8596625;33;20457;-76
2022/04/07 08:50:59;;;;;;;1.63;0.93;;;;;;;6.50;92.34;97180.31;8593317;33;21046;-76
2022/04/07 08:56:10;;;;;;;1.17;1.17;;;;;;;6.59;92.39;97163.28;8593789;33;20556;-76
2022/04/07 09:01:15;;;;;;;0.93;0.93;;;;;;;6.40;93.25;97138.72;8589718;33;20406;-76
2022/04/07 09:06:23;;;;;;;0.90;0.90;;;;;;;6.25;93.67;97129.81;8591290;33;20223;-77
2022/04/07 09:11:26;;;;;;;1.15;1.10;;;;;;;6.49;93.84;97114.69;8595739;33;20212;-77
2022/04/07 09:16:32;;;;;;;0.90;0.90;;;;;;;6.57;94.19;97083.44;8607308;33;20155;-76
2022/04/07 09:21:37;;;;;;;1.52;1.20;;;;;;;6.70;98.19;97058.00;8596457;33;21995;-76
2022/04/07 09:26:40;;;;;;;1.15;1.10;;;;;;;6.58;94.13;97038.94;8591371;33;20200;-76
2022/04/07 09:31:54;;;;;;;1.13;1.02;;;;;;;6.81;92.96;97012.22;8599291;33;20274;-77
2022/04/07 09:37:05;;;;;;;1.33;1.20;;;;;;;7.30;91.24;97022.41;8597794;33;20829;-77
2022/04/07 09:42:20;;;;;;;0.82;0.80;;;;;;;7.13;90.11;96971.06;8624273;33;20401;-77
2022/04/07 09:47:35;;;;;;;1.77;0.90;;;;;;;7.27;89.23;96946.19;8593437;33;20429;-76
2022/04/07 09:52:41;;;;;;;0.80;0.80;;;;;;;7.22;88.82;96945.09;8604209;33;20217;-77
2022/04/07 09:57:44;;;;;;;0.93;0.82;;;;;;;7.22;91.56;96966.44;8603437;33;20281;-76
2022/04/07 10:02:49;;;;;;;2.47;1.33;;;;;;;7.07;99.05;97089.19;8604535;33;21027;-75
2022/04/07 10:07:52;;;;;;;2.30;1.00;;;;;;;2.81;91.27;97192.38;8609275;33;20409;-75
2022/04/07 10:12:59;;;;;;;1.73;0.98;;;;;;;1.63;98.84;97202.03;8615834;33;20452;-74
2022/04/07 10:18:09;;;;;;;2.15;1.15;;;;;;;2.06;99.53;97174.09;8600502;33;20403;-78
2022/04/07 10:23:28;;;;;;;1.95;1.10;;;;;;;2.42;99.45;97181.25;8606399;33;20192;-75
2022/04/07 10:28:32;;;;;;;2.33;1.20;;;;;;;2.69;97.68;97177.69;8601691;33;20447;-75
2022/04/07 10:33:44;;;;;;;0.90;0.90;;;;;;;3.06;96.85;97143.84;8617619;33;23157;-76
2022/04/07 10:38:54;;;;;;;1.38;1.13;;;;;;;3.99;98.50;97115.75;8618861;33;20168;-75
2022/04/07 10:44:08;;;;;;;0.90;0.90;;;;;;;3.95;94.39;97091.34;8618837;33;20413;-75
2022/04/07 10:49:21;;;;;;;2.33;1.08;;;;;;;4.40;97.08;97090.91;8612264;33;20398;-75
2022/04/07 10:54:28;;;;;;;1.00;1.00;;;;;;;4.83;95.32;97086.25;8605922;33;20151;-74
2022/04/07 10:59:34;;;;;;;1.55;1.20;;;;;;;5.17;97.33;97090.53;8613284;33;20252;-74
2022/04/07 11:05:08;;;;;;;2.40;1.05;;;;;;;6.10;98.88;97084.44;8607725;33;20820;-74
2022/04/07 11:10:14;;;;;;;1.90;1.20;;;;;;;6.30;95.20;97113.31;8604021;33;21689;-74
2022/04/07 11:15:26;;;;;;;0.70;0.70;;;;;;;5.92;92.46;97103.38;8602920;33;20147;-74
2022/04/07 11:20:31;;;;;;;2.00;0.90;;;;;;;5.79;91.93;97110.25;8598270;33;20437;-74
2022/04/07 11:25:36;;;;;;;0.90;0.90;;;;;;;5.38;92.61;97137.06;8597638;33;20147;-75
2022/04/07 11:30:43;;;;;;;1.60;1.50;;;;;;;5.65;91.55;97135.78;8597652;33;20499;-74
2022/04/07 11:36:14;;;;;;;1.80;1.60;;;;;;;6.57;92.87;97128.78;8596470;33;20557;-74
2022/04/07 11:41:19;;;;;;;1.40;1.30;;;;;;;6.13;89.14;97147.22;8596283;33;20416;-75
2022/04/07 11:46:27;;;;;;;1.70;1.60;;;;;;;6.36;87.55;97158.75;8592093;33;20264;-74
2022/04/07 11:51:37;;;;;;;2.05;1.40;;;;;;;6.66;86.08;97158.88;8597268;33;20143;-75
2022/04/07 11:56:40;;;;;;;2.10;1.90;;;;;;;6.24;86.75;97168.16;8596079;33;20507;-75
2022/04/07 12:01:45;;;;;;;2.13;1.70;;;;;;;6.43;87.44;97174.03;8596599;33;20516;-75
2022/04/07 12:06:50;;;;;;;2.72;2.53;;;;;;;7.16;85.46;97159.31;8597744;33;20186;-75
2022/04/07 12:11:54;;;;;;;2.80;2.13;;;;;;;8.02;83.69;97139.19;8599187;33;20461;-75
2022/04/07 12:16:57;;;;;;;2.97;2.45;;;;;;;8.18;78.56;97132.78;8597010;33;20401;-75
2022/04/07 12:22:02;;;;;;;3.25;1.80;;;;;;;8.64;75.81;97131.63;8596013;33;21131;-75
2022/04/07 12:27:08;;;;;;;2.28;2.08;;;;;;;9.64;71.27;97099.25;8592201;33;20167;-75
2022/04/07 12:32:11;;;;;;;2.22;1.70;;;;;;;10.39;68.48;97104.69;8591569;33;20420;-75
2022/04/07 12:37:28;;;;;;;2.10;1.60;;;;;;;9.48;67.81;97110.28;8591450;33;21130;-75
2022/04/07 12:42:31;;;;;;;4.93;2.15;;;;;;;8.32;68.47;97123.06;8591981;33;20517;-75
2022/04/07 12:47:34;;;;;;;3.75;2.10;;;;;;;8.15;71.06;97134.00;8597999;33;20530;-74
2022/04/07 12:52:42;;;;;;;2.78;1.85;;;;;;;8.46;71.72;97118.72;8605882;33;20408;-75
2022/04/07 12:57:47;;;;;;;2.53;1.40;;;;;;;9.69;63.77;97117.41;8607463;33;20189;-74
2022/04/07 13:03:13;;;;;;;1.90;1.55;;;;;;;9.81;62.24;97107.78;8549921;33;20975;-74
2022/04/07 13:08:18;;;;;;;5.28;1.30;;;;;;;11.06;57.64;97109.13;8593481;33;21186;-74
2022/04/07 13:13:21;;;;;;;2.50;1.63;;;;;;;12.10;56.61;97115.53;8617371;32;20182;-74
2022/04/07 13:18:24;;;;;;;2.83;1.58;;;;;;;11.59;54.55;97107.44;8643206;32;20519;-73
2022/04/07 13:23:29;;;;;;;1.02;0.90;;;;;;;11.84;54.31;97104.88;8633699;32;21038;-73
2022/04/07 13:28:32;;;;;;;2.20;1.20;;;;;;;12.44;50.66;97099.25;8624066;32;20139;-73
2022/04/07 13:33:35;;;;;;;3.88;1.15;;;;;;;10.23;51.13;97118.47;8575723;33;20594;-73
2022/04/07 13:38:40;;;;;;;2.40;1.00;;;;;;;11.18;48.84;97133.50;8574896;33;20525;-72
2022/04/07 13:43:43;;;;;;;4.80;1.27;;;;;;;11.04;49.68;97113.88;8591154;32;20210;-72
2022/04/07 13:48:46;;;;;;;1.92;1.63;;;;;;;11.75;49.36;97108.84;8627297;32;20229;-74
2022/04/07 13:53:50;;;;;;;5.55;1.67;;;;;;;11.45;49.41;97160.38;8604461;33;20424;-73
2022/04/07 13:58:53;;;;;;;5.35;1.45;;;;;;;10.34;52.46;97142.06;8605584;33;20921;-73
2022/04/07 14:03:56;;;;;;;4.57;1.67;;;;;;;9.21;53.98;97162.81;8624334;33;20420;-72
2022/04/07 14:09:01;;;;;;;2.20;1.60;;;;;;;8.00;59.00;97215.22;8618611;33;20450;-73
2022/04/07 14:14:04;;;;;;;3.08;1.45;;;;;;;8.33;56.97;97200.41;8618199;33;20183;-72
2022/04/07 14:19:07;;;;;;;2.75;1.42;;;;;;;8.62;54.27;97177.34;8620390;33;20290;-72
2022/04/07 14:24:11;;;;;;;4.28;1.83;;;;;;;8.72;54.06;97171.66;8618253;33;21006;-73
2022/04/07 14:29:14;;;;;;;7.03;2.05;;;;;;;8.29;54.10;97167.06;8624744;33;20393;-73
2022/04/07 14:34:17;;;;;;;5.38;1.77;;;;;;;8.53;53.16;97167.75;8627449;33;20414;-72
2022/04/07 14:39:22;;;;;;;7.93;2.78;;;;;;;8.22;53.25;97171.50;8619965;33;20919;-73
2022/04/07 14:44:26;;;;;;;6.00;1.85;;;;;;;8.29;54.07;97187.63;8617845;33;20429;-72
2022/04/07 14:49:32;;;;;;;4.68;2.17;;;;;;;6.83;64.02;97205.78;8617994;33;20693;-73
2022/04/07 14:54:48;;;;;;;4.05;1.30;;;;;;;7.00;64.35;97192.34;8613459;33;20425;-72
2022/04/07 14:59:51;;;;;;;2.80;1.48;;;;;;;8.05;60.89;97202.13;8606787;33;20147;-72
2022/04/07 15:04:54;;;;;;;5.03;1.60;;;;;;;8.93;56.06;97214.47;8615980;33;20648;-73
2022/04/07 15:09:58;;;;;;;5.50;1.85;;;;;;;9.10;55.44;97203.50;8602793;33;20278;-73
2022/04/07 15:15:02;;;;;;;5.03;1.80;;;;;;;9.68;53.56;97198.81;8598182;33;20400;-73
2022/04/07 15:20:07;;;;;;;4.40;1.35;;;;;;;9.89;53.29;97219.41;8600401;33;20684;-73
2022/04/07 15:25:12;;;;;;;4.10;2.00;;;;;;;9.35;51.74;97180.69;8600908;33;20170;-73
2022/04/07 15:30:17;;;;;;;4.55;2.03;;;;;;;9.33;52.03;97244.31;8601023;33;20261;-73
2022/04/07 15:35:20;;;;;;;4.43;2.00;;;;;;;9.56;52.72;97195.03;8602253;33;20135;-74
2022/04/07 15:40:24;;;;;;;9.18;2.05;;;;;;;9.62;51.22;97196.91;8596881;33;20197;-74
2022/04/07 15:45:27;;;;;;;4.05;1.77;;;;;;;9.33;52.36;97180.03;8597490;33;20183;-74
2022/04/07 15:50:31;;;;;;;6.32;2.20;;;;;;;9.94;51.19;97223.13;8600930;33;20506;-74
2022/04/07 15:55:36;;;;;;;6.85;2.05;;;;;;;9.64;50.40;97205.59;8600746;33;20161;-74
2022/04/07 16:00:39;;;;;;;2.25;1.63;;;;;;;9.62;51.61;97211.13;8601177;33;20196;-74
2022/04/07 16:05:42;;;;;;;5.38;2.13;;;;;;;9.02;53.56;97226.75;8600453;33;20285;-74
2022/04/07 16:10:46;;;;;;;4.95;1.77;;;;;;;8.86;53.89;97236.84;8601516;33;20459;-76
2022/04/07 16:15:53;;;;;;;4.38;1.90;;;;;;;9.41;53.18;97221.94;8602181;33;21197;-74
2022/04/07 16:20:56;;;;;;;4.53;1.88;;;;;;;8.77;53.85;97252.19;8601831;33;20140;-74
2022/04/07 16:26:01;;;;;;;3.75;1.38;;;;;;;8.92;53.40;97246.81;8598671;33;20238;-74
2022/04/07 16:31:06;;;;;;;4.90;1.50;;;;;;;9.16;54.26;97258.97;8599084;33;20214;-74
2022/04/07 16:36:09;;;;;;;5.07;1.92;;;;;;;9.12;54.54;97249.66;8596274;33;20421;-74
2022/04/07 16:41:14;;;;;;;3.00;1.50;;;;;;;7.92;56.33;97269.56;8599738;33;21158;-74
2022/04/07 16:46:17;;;;;;;6.18;2.10;;;;;;;7.93;56.96;97288.13;8599573;33;20144;-74
2022/04/07 16:51:20;;;;;;;7.85;2.03;;;;;;;7.97;57.57;97296.59;8601142;33;20278;-74
2022/04/07 16:56:25;;;;;;;6.55;1.27;;;;;;;7.69;61.31;97281.16;8596623;33;20635;-74
2022/04/07 17:01:28;;;;;;;9.45;2.63;;;;;;;7.52;66.75;97357.09;8588324;33;20136;-74
2022/04/07 17:06:31;;;;;;;5.88;1.80;;;;;;;3.70;88.22;97404.50;8592399;33;20237;-74
2022/04/07 17:11:36;;;;;;;6.85;2.85;;;;;;;3.36;94.77;97382.31;8595068;33;20652;-76
2022/04/07 17:16:39;;;;;;;2.08;1.88;;;;;;;3.32;93.58;97397.69;8600172;33;20131;-77
2022/04/07 17:21:42;;;;;;;4.20;1.80;;;;;;;3.47;92.85;97438.63;8594035;33;20425;-76
2022/04/07 17:26:47;;;;;;;4.45;1.83;;;;;;;3.45;91.21;97392.81;8562385;33;20410;-76
2022/04/07 17:31:52;;;;;;;4.22;2.05;;;;;;;3.75;92.13;97438.53;8525972;33;20990;-76
2022/04/07 17:37:03;;;;;;;2.70;1.55;;;;;;;3.52;89.17;97432.88;8540372;33;20144;-76
2022/04/07 17:42:14;;;;;;;1.30;1.20;;;;;;;3.65;88.36;97435.16;8551028;33;20183;-76
2022/04/07 17:47:17;;;;;;;3.67;1.60;;;;;;;3.77;85.79;97467.59;8561787;33;20209;-76
2022/04/07 17:52:23;;;;;;;3.88;2.03;;;;;;;3.05;88.46;97438.34;8571699;33;20664;-76
2022/04/07 17:57:27;;;;;;;2.95;1.98;;;;;;;2.39;97.09;97479.06;8601661;33;21518;-77
2022/04/07 18:02:30;;;;;;;2.50;0.75;;;;;;;2.34;99.35;97487.41;8622025;33;21025;-77
2022/04/07 18:07:33;;;;;;;1.73;1.50;;;;;;;2.74;98.40;97464.31;8623254;33;20545;-77
2022/04/07 18:12:38;;;;;;;5.70;2.42;;;;;;;2.90;96.86;97456.56;8626268;33;20529;-78
2022/04/07 18:17:41;;;;;;;3.72;2.10;;;;;;;3.28;96.16;97449.38;8625027;33;21037;-76
2022/04/07 18:22:47;;;;;;;5.45;2.28;;;;;;;3.57;94.20;97456.31;8619620;33;20127;-75
2022/04/07 18:27:53;;;;;;;2.72;1.90;;;;;;;3.66;93.14;97473.97;8623431;33;20512;-76
2022/04/07 18:32:56;;;;;;;5.78;2.45;;;;;;;3.64;92.25;97497.16;8618439;33;20159;-76
2022/04/07 18:37:59;;;;;;;4.65;2.25;;;;;;;3.61;93.40;97503.63;8607996;33;20175;-76
2022/04/07 18:43:03;;;;;;;2.35;2.00;;;;;;;3.61;93.35;97508.09;8603407;33;20190;-75
2022/04/07 18:48:06;;;;;;;4.72;2.30;;;;;;;3.64;92.27;97556.41;8602646;33;20496;-76
2022/04/07 18:53:12;;;;;;;2.03;1.80;;;;;;;3.38;92.49;97508.53;8603784;33;20400;-76
2022/04/07 18:58:19;;;;;;;1.55;1.40;;;;;;;3.25;93.83;97561.91;8611591;33;21007;-76
2022/04/07 19:03:24;;;;;;;1.85;1.70;;;;;;;2.71;96.45;97568.78;8609436;33;20182;-75
2022/04/07 19:08:27;;;;;;;1.77;1.67;;;;;;;2.68;94.55;97558.50;8602243;33;20567;-76
2022/04/07 19:13:31;;;;;;;1.40;1.30;;;;;;;2.71;93.77;97589.16;8602015;33;20187;-76
2022/04/07 19:18:35;;;;;;;1.75;1.65;;;;;;;3.27;93.45;97549.34;8601337;33;21171;-76
2022/04/07 19:23:38;;;;;;;6.18;2.05;;;;;;;3.15;92.56;97581.50;8602236;33;20177;-76
2022/04/07 19:28:42;;;;;;;5.35;1.80;;;;;;;3.25;91.56;97582.31;8601296;33;20541;-76
2022/04/07 19:33:51;;;;;;;2.35;1.80;;;;;;;3.45;90.44;97569.78;8601706;33;20536;-76
2022/04/07 19:38:54;;;;;;;1.73;1.35;;;;;;;3.52;88.82;97578.00;8599162;33;20410;-76
2022/04/07 19:43:59;;;;;;;2.95;1.27;;;;;;;3.44;88.68;97582.22;8600448;33;20452;-76
2022/04/07 19:49:03;;;;;;;3.22;1.90;;;;;;;3.57;88.65;97596.97;8600255;33;20412;-76
2022/04/07 19:54:06;;;;;;;1.98;1.30;;;;;;;3.77;87.82;97587.91;8541190;33;20428;-74
2022/04/07 19:59:11;;;;;;;2.40;1.80;;;;;;;3.71;86.57;97573.41;8581800;33;20554;-77
2022/04/07 20:04:14;;;;;;;2.25;1.35;;;;;;;3.79;86.93;97595.72;8603108;33;20415;-76
2022/04/07 20:09:20;;;;;;;1.85;1.60;;;;;;;3.59;88.20;97584.38;8597673;33;20433;-76
2022/04/07 20:14:29;;;;;;;2.65;1.88;;;;;;;3.78;86.58;97602.00;8599327;33;20458;-76
2022/04/07 20:19:33;;;;;;;3.05;1.55;;;;;;;3.72;85.23;97601.63;8600840;33;20462;-76
2022/04/07 20:24:36;;;;;;;2.42;1.63;;;;;;;3.82;84.31;97612.19;8597928;33;20189;-76
2022/04/07 20:29:44;;;;;;;2.17;1.50;;;;;;;3.76;83.51;97639.34;8592043;33;20187;-75
2022/04/07 20:34:48;;;;;;;2.45;1.48;;;;;;;3.91;83.34;97634.34;8595064;33;20500;-76
2022/04/07 20:39:51;;;;;;;3.85;1.88;;;;;;;3.75;82.76;97627.03;8598252;33;20614;-76
2022/04/07 20:44:55;;;;;;;2.58;1.88;;;;;;;3.95;81.81;97610.00;8598749;33;20177;-77
2022/04/07 20:49:58;;;;;;;6.40;2.40;;;;;;;4.24;82.11;97655.94;8648076;32;20536;-75
2022/04/07 20:55:01;;;;;;;5.47;2.10;;;;;;;4.11;82.77;97651.84;8641273;32;20465;-75
2022/04/07 21:00:08;;;;;;;2.63;1.90;;;;;;;4.18;81.99;97633.47;8600558;33;20906;-76
2022/04/07 21:05:12;;;;;;;4.25;2.58;;;;;;;4.20;81.91;97681.13;8591257;33;20420;-75
2022/04/07 21:10:15;;;;;;;1.75;1.55;;;;;;;4.17;81.33;97708.88;8593940;33;20418;-76
2022/04/07 21:15:20;;;;;;;2.92;1.85;;;;;;;4.18;80.27;97689.28;8599409;33;20491;-76
2022/04/07 21:20:23;;;;;;;3.83;2.03;;;;;;;4.13;79.18;97753.47;8598517;33;20208;-77
2022/04/07 21:25:26;;;;;;;5.43;2.20;;;;;;;4.53;77.78;97701.75;8599172;33;20199;-74
2022/04/07 21:30:31;;;;;;;2.65;1.80;;;;;;;4.40;76.89;97701.28;8599995;33;21031;-76
2022/04/07 21:35:34;;;;;;;2.03;1.92;;;;;;;4.26;75.99;97720.41;8599224;33;20743;-78
2022/04/07 21:40:37;;;;;;;2.13;1.83;;;;;;;4.47;75.69;97717.47;8588654;33;21470;-76
2022/04/07 21:45:41;;;;;;;3.00;1.63;;;;;;;4.63;76.25;97738.91;8603928;33;20139;-76
2022/04/07 21:50:44;;;;;;;3.17;1.67;;;;;;;4.69;76.17;97751.59;8603528;33;20418;-75
2022/04/07 21:55:48;;;;;;;2.58;1.75;;;;;;;4.68;75.72;97773.84;8603461;33;20495;-76
2022/04/07 22:00:52;;;;;;;5.53;1.90;;;;;;;4.33;75.93;97793.22;8605328;33;20143;-75
2022/04/07 22:05:55;;;;;;;3.45;2.42;;;;;;;4.70;75.10;97781.69;8603310;33;20591;-75
2022/04/07 22:10:58;;;;;;;2.10;1.50;;;;;;;4.68;75.58;97783.66;8603678;33;21953;-75
2022/04/07 22:16:03;;;;;;;4.20;1.77;;;;;;;4.58;75.53;97810.28;8603908;33;20458;-75
2022/04/07 22:21:06;;;;;;;4.05;1.95;;;;;;;4.48;75.90;97822.81;8603862;33;20194;-77
2022/04/07 22:26:09;;;;;;;2.80;1.70;;;;;;;4.60;75.49;97872.97;8602621;33;20143;-75
2022/04/07 22:31:13;;;;;;;3.38;1.80;;;;;;;4.63;75.40;97842.59;8626264;33;20183;-76
2022/04/07 22:36:16;;;;;;;2.67;2.10;;;;;;;4.75;75.74;97861.84;8604185;33;20487;-76
2022/04/07 22:41:39;;;;;;;4.67;1.70;;;;;;;4.76;74.63;97860.84;8604024;33;20421;-75
2022/04/07 22:46:44;;;;;;;2.65;1.48;;;;;;;4.66;74.32;97890.16;8600864;33;20410;-76
2022/04/07 22:51:47;;;;;;;5.05;1.80;;;;;;;4.70;74.26;97888.88;8637329;33;20341;-76
2022/04/07 22:56:50;;;;;;;2.83;1.77;;;;;;;4.48;74.42;97914.03;8617909;33;20436;-75
2022/04/07 23:01:55;;;;;;;3.45;1.75;;;;;;;4.80;74.50;97926.06;8611892;33;20431;-75
2022/04/07 23:06:59;;;;;;;5.60;2.10;;;;;;;4.50;75.54;97929.81;8607491;33;20500;-75
2022/04/07 23:12:02;;;;;;;2.92;1.98;;;;;;;4.42;76.50;97925.25;8602562;33;20403;-75
2022/04/07 23:17:07;;;;;;;3.35;2.20;;;;;;;4.73;76.37;97960.38;8583770;33;21069;-75
2022/04/07 23:22:11;;;;;;;3.95;1.75;;;;;;;4.51;76.75;97963.41;8598202;33;20442;-74
2022/04/07 23:27:14;;;;;;;3.47;1.58;;;;;;;4.31;77.00;97979.41;8599761;33;21538;-76
2022/04/07 23:32:18;;;;;;;5.65;2.45;;;;;;;4.42;76.04;97969.59;8600904;33;20139;-76
2022/04/07 23:37:21;;;;;;;3.28;2.35;;;;;;;4.53;74.29;97962.28;8601132;33;20474;-75
2022/04/07 23:42:25;;;;;;;4.22;1.85;;;;;;;4.62;73.65;97998.63;8600260;33;20513;-75
2022/04/07 23:47:29;;;;;;;2.30;1.40;;;;;;;4.59;73.24;98016.69;8598673;33;20460;-75
2022/04/07 23:52:33;;;;;;;4.00;2.00;;;;;;;4.62;71.20;98008.44;8598307;33;20465;-75
2022/04/07 23:57:36;;;;;;;3.47;1.80;;;;;;;4.46;71.38;98035.59;8600009;33;21125;-75
